Terminal Aerodrome Forecast
Issued by NWS

Home | Current Version | Previous Version | Text Only | Print | Product List | Glossary On
Versions: 1 2 3 4 5 6 7 8 9 10 11 12 13 14 15 16 17 18 19 20 21 22 23 24 25 26 27 28 29 30 31 32 33 34 35 36 37 38 39 40 41 42 43 44
000
FTUS41 KBTV 280535
TAFSLK
TAF
KSLK 280535Z 2806/2906 VRB03KT 5SM BR VCSH BKN008 OVC015
     FM280900 VRB03KT P6SM VCSH OVC008
     FM281200 00000KT 2SM BR VCSH OVC005
     FM281400 23005KT 5SM BR VCSH OVC013
     FM282100 24006KT P6SM OVC021=

USA.gov is the U.S. government's official web portal to all federal, state and local government web resources and services.